Portada
METAR-TAF:

METAR-TAF

Aeropuertos :

Monte Argentario, Italia

latitud: 42-23N, longitud: 011-10E, altitud: 630 m

Observación

El informe se hizo hace 1 hora y 1 minutos, a las 10:55 UTC
Viento 3 kt del este
Temperatura 10°C
Humedad 57%
Presión 1013 hPa
Visibilidad 10 km o más
Escasas nubes a una altura de 1000 ft

METAR: LIQO 161055Z 08003KT 9999 FEW010 10/02 Q1013 RMK BKN SCT053 VAL NIL NC VIS MIN 9999

Hora: 13:56 (11:56 UTC)


TAF: falta

Observaciones y pronósticos meteorológicos de más de 4000 aeropuertos (mensajes METAR y TAF).

Los puntos amarillos y rojos representan las estaciones disponibles.

Ponga el ratón en el punto deseado para ver el nombre de la estación.

Haga clic para ver las observaciones y los pronósticos meteorológicos.

Para cambiar el mapa : haga clic en los botones verdes con una cruz de color negro para hacer un zoom, en el botón verde con un guión para alejar o en las flechas verdes para mapas adyacentes.


METAR-TAF: